sensor_id;sensor_type;location;lat;lon;timestamp;P1;durP1;ratioP1;P2;durP2;ratioP2
51499;SDS011;39101;53.478;6.158;2022-08-23T00:02:04;15.98;;;5.65;;
51499;SDS011;39101;53.478;6.158;2022-08-23T00:04:35;12.00;;;5.05;;
51499;SDS011;39101;53.478;6.158;2022-08-23T00:07:06;10.73;;;5.07;;
51499;SDS011;39101;53.478;6.158;2022-08-23T00:09:40;14.40;;;4.82;;
51499;SDS011;39101;53.478;6.158;2022-08-23T00:12:14;14.23;;;4.68;;
51499;SDS011;39101;53.478;6.158;2022-08-23T00:14:44;13.57;;;4.95;;
51499;SDS011;39101;53.478;6.158;2022-08-23T00:17:13;12.88;;;5.43;;
51499;SDS011;39101;53.478;6.158;2022-08-23T00:19:39;16.38;;;6.43;;
51499;SDS011;39101;53.478;6.158;2022-08-23T00:22:05;11.98;;;5.13;;
51499;SDS011;39101;53.478;6.158;2022-08-23T00:24:32;15.48;;;6.70;;
51499;SDS011;39101;53.478;6.158;2022-08-23T00:29:38;15.23;;;6.82;;
51499;SDS011;39101;53.478;6.158;2022-08-23T00:32:09;14.00;;;6.47;;
51499;SDS011;39101;53.478;6.158;2022-08-23T00:34:40;17.40;;;6.28;;
51499;SDS011;39101;53.478;6.158;2022-08-23T00:37:08;16.05;;;7.72;;
51499;SDS011;39101;53.478;6.158;2022-08-23T00:39:38;13.43;;;6.22;;
51499;SDS011;39101;53.478;6.158;2022-08-23T00:42:06;13.80;;;6.40;;
51499;SDS011;39101;53.478;6.158;2022-08-23T00:45:08;13.93;;;6.15;;
51499;SDS011;39101;53.478;6.158;2022-08-23T00:48:00;9.85;;;5.10;;
51499;SDS011;39101;53.478;6.158;2022-08-23T00:53:18;15.30;;;7.07;;
51499;SDS011;39101;53.478;6.158;2022-08-23T00:55:51;20.13;;;6.95;;
51499;SDS011;39101;53.478;6.158;2022-08-23T00:58:24;16.20;;;6.68;;
51499;SDS011;39101;53.478;6.158;2022-08-23T01:00:51;11.82;;;6.70;;
51499;SDS011;39101;53.478;6.158;2022-08-23T01:03:24;9.73;;;5.97;;
51499;SDS011;39101;53.478;6.158;2022-08-23T01:05:57;12.93;;;6.32;;
51499;SDS011;39101;53.478;6.158;2022-08-23T01:08:30;14.77;;;6.50;;
51499;SDS011;39101;53.478;6.158;2022-08-23T01:11:01;13.80;;;6.53;;
51499;SDS011;39101;53.478;6.158;2022-08-23T01:13:35;11.38;;;6.45;;
51499;SDS011;39101;53.478;6.158;2022-08-23T01:16:08;14.27;;;7.60;;
51499;SDS011;39101;53.478;6.158;2022-08-23T01:18:38;14.68;;;6.90;;
51499;SDS011;39101;53.478;6.158;2022-08-23T01:23:54;13.75;;;6.30;;
51499;SDS011;39101;53.478;6.158;2022-08-23T01:26:23;13.10;;;5.95;;
51499;SDS011;39101;53.478;6.158;2022-08-23T01:28:52;12.25;;;6.85;;
51499;SDS011;39101;53.478;6.158;2022-08-23T01:31:19;14.43;;;6.53;;
51499;SDS011;39101;53.478;6.158;2022-08-23T01:33:47;16.40;;;7.90;;
51499;SDS011;39101;53.478;6.158;2022-08-23T01:36:19;12.80;;;6.13;;
51499;SDS011;39101;53.478;6.158;2022-08-23T01:38:46;12.18;;;6.53;;
51499;SDS011;39101;53.478;6.158;2022-08-23T01:41:14;15.23;;;7.30;;
51499;SDS011;39101;53.478;6.158;2022-08-23T01:43:40;14.07;;;5.95;;
51499;SDS011;39101;53.478;6.158;2022-08-23T01:46:11;14.75;;;6.40;;
51499;SDS011;39101;53.478;6.158;2022-08-23T01:48:39;13.63;;;6.03;;
51499;SDS011;39101;53.478;6.158;2022-08-23T01:51:05;13.68;;;6.45;;
51499;SDS011;39101;53.478;6.158;2022-08-23T01:53:32;14.38;;;6.70;;
51499;SDS011;39101;53.478;6.158;2022-08-23T01:55:59;11.10;;;6.75;;
51499;SDS011;39101;53.478;6.158;2022-08-23T01:58:32;19.10;;;7.82;;
51499;SDS011;39101;53.478;6.158;2022-08-23T02:01:00;15.07;;;8.30;;
51499;SDS011;39101;53.478;6.158;2022-08-23T02:03:29;12.80;;;8.25;;
51499;SDS011;39101;53.478;6.158;2022-08-23T02:05:56;11.73;;;7.93;;
51499;SDS011;39101;53.478;6.158;2022-08-23T02:08:22;12.93;;;8.45;;
51499;SDS011;39101;53.478;6.158;2022-08-23T02:11:08;14.07;;;8.60;;
51499;SDS011;39101;53.478;6.158;2022-08-23T02:13:36;13.07;;;8.25;;
51499;SDS011;39101;53.478;6.158;2022-08-23T02:16:03;16.45;;;9.20;;
51499;SDS011;39101;53.478;6.158;2022-08-23T02:18:29;15.02;;;8.95;;
51499;SDS011;39101;53.478;6.158;2022-08-23T02:20:55;13.82;;;9.32;;
51499;SDS011;39101;53.478;6.158;2022-08-23T02:23:23;14.20;;;9.93;;
51499;SDS011;39101;53.478;6.158;2022-08-23T02:25:49;16.08;;;9.70;;
51499;SDS011;39101;53.478;6.158;2022-08-23T02:28:16;15.65;;;9.00;;
51499;SDS011;39101;53.478;6.158;2022-08-23T02:30:45;14.00;;;9.52;;
51499;SDS011;39101;53.478;6.158;2022-08-23T02:33:11;14.63;;;9.95;;
51499;SDS011;39101;53.478;6.158;2022-08-23T02:35:37;14.27;;;9.77;;
51499;SDS011;39101;53.478;6.158;2022-08-23T02:38:04;17.38;;;10.00;;
51499;SDS011;39101;53.478;6.158;2022-08-23T02:40:34;17.10;;;10.60;;
51499;SDS011;39101;53.478;6.158;2022-08-23T02:43:00;15.05;;;9.63;;
51499;SDS011;39101;53.478;6.158;2022-08-23T02:45:28;15.32;;;10.50;;
51499;SDS011;39101;53.478;6.158;2022-08-23T02:47:54;13.73;;;11.27;;
51499;SDS011;39101;53.478;6.158;2022-08-23T02:50:21;14.77;;;10.88;;
51499;SDS011;39101;53.478;6.158;2022-08-23T02:52:47;14.85;;;10.50;;
51499;SDS011;39101;53.478;6.158;2022-08-23T02:55:13;14.63;;;11.82;;
51499;SDS011;39101;53.478;6.158;2022-08-23T02:57:39;19.77;;;11.27;;
51499;SDS011;39101;53.478;6.158;2022-08-23T03:00:06;15.95;;;11.40;;
51499;SDS011;39101;53.478;6.158;2022-08-23T03:02:36;16.20;;;11.95;;
51499;SDS011;39101;53.478;6.158;2022-08-23T03:05:04;15.63;;;11.27;;
51499;SDS011;39101;53.478;6.158;2022-08-23T03:07:31;14.98;;;11.90;;
51499;SDS011;39101;53.478;6.158;2022-08-23T03:09:57;17.58;;;11.68;;
51499;SDS011;39101;53.478;6.158;2022-08-23T03:12:24;17.08;;;11.55;;
51499;SDS011;39101;53.478;6.158;2022-08-23T03:14:51;15.48;;;13.13;;
51499;SDS011;39101;53.478;6.158;2022-08-23T03:17:18;17.85;;;12.13;;
51499;SDS011;39101;53.478;6.158;2022-08-23T03:19:44;18.33;;;13.15;;
51499;SDS011;39101;53.478;6.158;2022-08-23T03:22:10;18.45;;;13.13;;
51499;SDS011;39101;53.478;6.158;2022-08-23T03:24:36;15.73;;;12.43;;
51499;SDS011;39101;53.478;6.158;2022-08-23T03:27:02;16.60;;;13.40;;
51499;SDS011;39101;53.478;6.158;2022-08-23T03:29:29;17.17;;;12.38;;
51499;SDS011;39101;53.478;6.158;2022-08-23T03:34:25;14.85;;;11.73;;
51499;SDS011;39101;53.478;6.158;2022-08-23T03:37:09;16.08;;;12.50;;
51499;SDS011;39101;53.478;6.158;2022-08-23T03:39:35;16.05;;;12.07;;
51499;SDS011;39101;53.478;6.158;2022-08-23T03:42:02;16.75;;;12.90;;
51499;SDS011;39101;53.478;6.158;2022-08-23T03:44:30;15.70;;;11.95;;
51499;SDS011;39101;53.478;6.158;2022-08-23T03:46:57;17.38;;;12.85;;
51499;SDS011;39101;53.478;6.158;2022-08-23T03:49:23;14.27;;;12.45;;
51499;SDS011;39101;53.478;6.158;2022-08-23T03:51:48;16.33;;;13.68;;
51499;SDS011;39101;53.478;6.158;2022-08-23T03:54:14;23.85;;;13.90;;
51499;SDS011;39101;53.478;6.158;2022-08-23T03:56:49;17.48;;;13.13;;
51499;SDS011;39101;53.478;6.158;2022-08-23T03:59:19;16.00;;;12.27;;
51499;SDS011;39101;53.478;6.158;2022-08-23T04:01:46;19.52;;;13.48;;
51499;SDS011;39101;53.478;6.158;2022-08-23T04:04:12;20.42;;;14.43;;
51499;SDS011;39101;53.478;6.158;2022-08-23T04:06:40;15.75;;;13.55;;
51499;SDS011;39101;53.478;6.158;2022-08-23T04:09:05;17.45;;;13.68;;
51499;SDS011;39101;53.478;6.158;2022-08-23T04:11:32;17.25;;;12.90;;
51499;SDS011;39101;53.478;6.158;2022-08-23T04:13:58;15.02;;;12.43;;
51499;SDS011;39101;53.478;6.158;2022-08-23T04:16:24;18.08;;;13.07;;
51499;SDS011;39101;53.478;6.158;2022-08-23T04:18:49;17.10;;;13.63;;
51499;SDS011;39101;53.478;6.158;2022-08-23T04:21:16;19.92;;;13.32;;
51499;SDS011;39101;53.478;6.158;2022-08-23T04:23:44;18.50;;;12.90;;
51499;SDS011;39101;53.478;6.158;2022-08-23T04:26:09;17.05;;;13.43;;
51499;SDS011;39101;53.478;6.158;2022-08-23T04:28:35;14.85;;;12.25;;
51499;SDS011;39101;53.478;6.158;2022-08-23T04:31:01;16.67;;;13.90;;
51499;SDS011;39101;53.478;6.158;2022-08-23T04:33:29;18.17;;;14.32;;
51499;SDS011;39101;53.478;6.158;2022-08-23T04:35:57;17.60;;;12.45;;
51499;SDS011;39101;53.478;6.158;2022-08-23T04:38:24;18.60;;;13.85;;
51499;SDS011;39101;53.478;6.158;2022-08-23T04:40:51;19.33;;;13.57;;
51499;SDS011;39101;53.478;6.158;2022-08-23T04:43:38;17.52;;;13.38;;
51499;SDS011;39101;53.478;6.158;2022-08-23T04:46:04;14.00;;;12.15;;
51499;SDS011;39101;53.478;6.158;2022-08-23T04:48:30;14.95;;;12.25;;
51499;SDS011;39101;53.478;6.158;2022-08-23T04:50:57;18.10;;;13.10;;
51499;SDS011;39101;53.478;6.158;2022-08-23T04:53:23;17.15;;;12.43;;
51499;SDS011;39101;53.478;6.158;2022-08-23T04:55:49;16.05;;;12.60;;
51499;SDS011;39101;53.478;6.158;2022-08-23T04:58:16;17.73;;;12.30;;
51499;SDS011;39101;53.478;6.158;2022-08-23T05:00:42;18.60;;;13.05;;
51499;SDS011;39101;53.478;6.158;2022-08-23T05:03:08;20.08;;;15.18;;
51499;SDS011;39101;53.478;6.158;2022-08-23T05:05:34;17.65;;;12.95;;
51499;SDS011;39101;53.478;6.158;2022-08-23T05:08:00;17.90;;;13.32;;
51499;SDS011;39101;53.478;6.158;2022-08-23T05:10:25;15.65;;;12.30;;
51499;SDS011;39101;53.478;6.158;2022-08-23T05:12:51;20.13;;;13.05;;
51499;SDS011;39101;53.478;6.158;2022-08-23T05:15:17;17.48;;;12.70;;
51499;SDS011;39101;53.478;6.158;2022-08-23T05:17:42;18.88;;;11.90;;
51499;SDS011;39101;53.478;6.158;2022-08-23T05:20:08;18.80;;;13.27;;
51499;SDS011;39101;53.478;6.158;2022-08-23T05:22:35;15.45;;;13.18;;
51499;SDS011;39101;53.478;6.158;2022-08-23T05:25:08;13.88;;;12.18;;
51499;SDS011;39101;53.478;6.158;2022-08-23T05:27:34;17.00;;;11.37;;
51499;SDS011;39101;53.478;6.158;2022-08-23T05:30:00;16.20;;;13.65;;
51499;SDS011;39101;53.478;6.158;2022-08-23T05:32:26;18.13;;;12.45;;
51499;SDS011;39101;53.478;6.158;2022-08-23T05:34:51;21.92;;;12.23;;
51499;SDS011;39101;53.478;6.158;2022-08-23T05:37:19;14.77;;;11.07;;
51499;SDS011;39101;53.478;6.158;2022-08-23T05:39:46;14.65;;;11.50;;
51499;SDS011;39101;53.478;6.158;2022-08-23T05:42:14;15.60;;;11.20;;
51499;SDS011;39101;53.478;6.158;2022-08-23T05:44:41;16.20;;;11.88;;
51499;SDS011;39101;53.478;6.158;2022-08-23T05:47:09;16.77;;;12.75;;
51499;SDS011;39101;53.478;6.158;2022-08-23T05:49:36;20.23;;;13.27;;
51499;SDS011;39101;53.478;6.158;2022-08-23T05:52:03;15.30;;;13.50;;
51499;SDS011;39101;53.478;6.158;2022-08-23T05:54:30;21.17;;;13.73;;
51499;SDS011;39101;53.478;6.158;2022-08-23T05:56:58;20.73;;;12.90;;
51499;SDS011;39101;53.478;6.158;2022-08-23T05:59:24;19.38;;;14.75;;
51499;SDS011;39101;53.478;6.158;2022-08-23T06:01:49;19.52;;;14.68;;
51499;SDS011;39101;53.478;6.158;2022-08-23T06:04:15;20.60;;;13.02;;
51499;SDS011;39101;53.478;6.158;2022-08-23T06:06:42;19.50;;;14.70;;
51499;SDS011;39101;53.478;6.158;2022-08-23T06:09:10;17.95;;;14.30;;
51499;SDS011;39101;53.478;6.158;2022-08-23T06:14:05;16.85;;;15.07;;
51499;SDS011;39101;53.478;6.158;2022-08-23T06:16:40;19.33;;;15.25;;
51499;SDS011;39101;53.478;6.158;2022-08-23T06:19:08;19.73;;;15.77;;
51499;SDS011;39101;53.478;6.158;2022-08-23T06:21:35;20.98;;;14.48;;
51499;SDS011;39101;53.478;6.158;2022-08-23T06:24:02;18.48;;;14.38;;
51499;SDS011;39101;53.478;6.158;2022-08-23T06:26:30;17.25;;;15.43;;
51499;SDS011;39101;53.478;6.158;2022-08-23T06:29:00;18.67;;;15.68;;
51499;SDS011;39101;53.478;6.158;2022-08-23T06:31:29;21.92;;;14.10;;
51499;SDS011;39101;53.478;6.158;2022-08-23T06:34:28;18.48;;;14.55;;
51499;SDS011;39101;53.478;6.158;2022-08-23T06:36:57;17.42;;;14.05;;
51499;SDS011;39101;53.478;6.158;2022-08-23T06:39:35;17.92;;;14.18;;
51499;SDS011;39101;53.478;6.158;2022-08-23T06:42:09;20.15;;;14.07;;
51499;SDS011;39101;53.478;6.158;2022-08-23T06:44:38;16.60;;;12.75;;
51499;SDS011;39101;53.478;6.158;2022-08-23T06:47:04;16.27;;;11.77;;
51499;SDS011;39101;53.478;6.158;2022-08-23T06:49:30;14.35;;;12.30;;
51499;SDS011;39101;53.478;6.158;2022-08-23T06:51:57;16.40;;;12.43;;
51499;SDS011;39101;53.478;6.158;2022-08-23T06:54:25;15.40;;;12.50;;
51499;SDS011;39101;53.478;6.158;2022-08-23T06:56:56;13.25;;;11.18;;
51499;SDS011;39101;53.478;6.158;2022-08-23T06:59:23;13.45;;;11.82;;
51499;SDS011;39101;53.478;6.158;2022-08-23T07:02:06;15.20;;;12.10;;
51499;SDS011;39101;53.478;6.158;2022-08-23T07:04:38;12.70;;;10.48;;
51499;SDS011;39101;53.478;6.158;2022-08-23T07:07:05;15.57;;;11.35;;
51499;SDS011;39101;53.478;6.158;2022-08-23T07:09:32;11.20;;;9.90;;
51499;SDS011;39101;53.478;6.158;2022-08-23T07:12:00;12.48;;;9.75;;
51499;SDS011;39101;53.478;6.158;2022-08-23T07:14:26;12.40;;;9.55;;
51499;SDS011;39101;53.478;6.158;2022-08-23T07:16:56;15.20;;;9.20;;
51499;SDS011;39101;53.478;6.158;2022-08-23T07:19:27;17.20;;;9.27;;
51499;SDS011;39101;53.478;6.158;2022-08-23T07:24:22;14.15;;;9.25;;
51499;SDS011;39101;53.478;6.158;2022-08-23T07:26:49;13.80;;;9.30;;
51499;SDS011;39101;53.478;6.158;2022-08-23T07:29:17;11.23;;;8.90;;
51499;SDS011;39101;53.478;6.158;2022-08-23T07:31:45;11.55;;;9.15;;
51499;SDS011;39101;53.478;6.158;2022-08-23T07:34:14;13.80;;;10.15;;
51499;SDS011;39101;53.478;6.158;2022-08-23T07:36:41;14.93;;;8.80;;
51499;SDS011;39101;53.478;6.158;2022-08-23T07:39:08;11.43;;;9.70;;
51499;SDS011;39101;53.478;6.158;2022-08-23T07:41:34;14.68;;;9.00;;
51499;SDS011;39101;53.478;6.158;2022-08-23T07:44:03;12.40;;;10.23;;
51499;SDS011;39101;53.478;6.158;2022-08-23T07:46:33;12.60;;;8.82;;
51499;SDS011;39101;53.478;6.158;2022-08-23T07:49:00;10.32;;;8.65;;
51499;SDS011;39101;53.478;6.158;2022-08-23T07:51:28;12.50;;;8.82;;
51499;SDS011;39101;53.478;6.158;2022-08-23T07:53:55;14.00;;;8.68;;
51499;SDS011;39101;53.478;6.158;2022-08-23T07:56:22;12.75;;;8.65;;
51499;SDS011;39101;53.478;6.158;2022-08-23T07:58:49;10.85;;;8.45;;
51499;SDS011;39101;53.478;6.158;2022-08-23T08:01:16;13.35;;;9.27;;
51499;SDS011;39101;53.478;6.158;2022-08-23T08:03:45;12.82;;;8.88;;
51499;SDS011;39101;53.478;6.158;2022-08-23T08:06:16;14.10;;;9.23;;
51499;SDS011;39101;53.478;6.158;2022-08-23T08:08:44;10.27;;;8.45;;
51499;SDS011;39101;53.478;6.158;2022-08-23T08:11:12;14.43;;;8.52;;
51499;SDS011;39101;53.478;6.158;2022-08-23T08:13:41;10.73;;;8.07;;
51499;SDS011;39101;53.478;6.158;2022-08-23T08:16:10;11.10;;;8.75;;
51499;SDS011;39101;53.478;6.158;2022-08-23T08:18:56;11.70;;;8.68;;
51499;SDS011;39101;53.478;6.158;2022-08-23T08:21:24;10.00;;;7.85;;
51499;SDS011;39101;53.478;6.158;2022-08-23T08:23:51;11.20;;;8.60;;
51499;SDS011;39101;53.478;6.158;2022-08-23T08:26:17;10.52;;;8.60;;
51499;SDS011;39101;53.478;6.158;2022-08-23T08:28:44;11.45;;;8.98;;
51499;SDS011;39101;53.478;6.158;2022-08-23T08:31:11;11.40;;;8.35;;
51499;SDS011;39101;53.478;6.158;2022-08-23T08:33:37;10.55;;;8.80;;
51499;SDS011;39101;53.478;6.158;2022-08-23T08:36:04;9.45;;;7.63;;
51499;SDS011;39101;53.478;6.158;2022-08-23T08:38:31;10.57;;;8.95;;
51499;SDS011;39101;53.478;6.158;2022-08-23T08:41:09;11.05;;;9.02;;
51499;SDS011;39101;53.478;6.158;2022-08-23T08:46:44;12.20;;;8.93;;
51499;SDS011;39101;53.478;6.158;2022-08-23T08:49:15;9.60;;;8.27;;
51499;SDS011;39101;53.478;6.158;2022-08-23T08:52:00;11.75;;;8.20;;
51499;SDS011;39101;53.478;6.158;2022-08-23T08:54:48;10.75;;;7.20;;
51499;SDS011;39101;53.478;6.158;2022-08-23T08:57:19;12.07;;;7.45;;
51499;SDS011;39101;53.478;6.158;2022-08-23T08:59:51;13.73;;;9.45;;
51499;SDS011;39101;53.478;6.158;2022-08-23T09:02:23;14.65;;;9.88;;
51499;SDS011;39101;53.478;6.158;2022-08-23T09:05:05;9.43;;;7.80;;
51499;SDS011;39101;53.478;6.158;2022-08-23T09:19:39;11.60;;;8.55;;
51499;SDS011;39101;53.478;6.158;2022-08-23T09:22:12;11.95;;;7.97;;
51499;SDS011;39101;53.478;6.158;2022-08-23T09:25:00;10.35;;;7.80;;
51499;SDS011;39101;53.478;6.158;2022-08-23T09:27:26;10.45;;;7.35;;
51499;SDS011;39101;53.478;6.158;2022-08-23T09:29:56;8.60;;;6.47;;
51499;SDS011;39101;53.478;6.158;2022-08-23T09:32:32;10.57;;;7.25;;
51499;SDS011;39101;53.478;6.158;2022-08-23T09:35:07;9.48;;;6.75;;
51499;SDS011;39101;53.478;6.158;2022-08-23T09:37:48;9.77;;;6.22;;
51499;SDS011;39101;53.478;6.158;2022-08-23T09:42:45;9.68;;;5.80;;
51499;SDS011;39101;53.478;6.158;2022-08-23T09:45:33;9.32;;;6.20;;
51499;SDS011;39101;53.478;6.158;2022-08-23T09:48:03;9.82;;;6.25;;
51499;SDS011;39101;53.478;6.158;2022-08-23T09:50:37;7.40;;;5.60;;
51499;SDS011;39101;53.478;6.158;2022-08-23T09:53:09;9.93;;;5.40;;
51499;SDS011;39101;53.478;6.158;2022-08-23T09:55:58;7.68;;;5.45;;
51499;SDS011;39101;53.478;6.158;2022-08-23T09:58:39;7.32;;;5.53;;
51499;SDS011;39101;53.478;6.158;2022-08-23T10:03:37;7.88;;;5.05;;
51499;SDS011;39101;53.478;6.158;2022-08-23T10:06:05;7.40;;;4.68;;
51499;SDS011;39101;53.478;6.158;2022-08-23T10:08:38;8.00;;;4.68;;
51499;SDS011;39101;53.478;6.158;2022-08-23T10:11:25;9.27;;;5.13;;
51499;SDS011;39101;53.478;6.158;2022-08-23T10:13:54;9.68;;;6.68;;
51499;SDS011;39101;53.478;6.158;2022-08-23T10:22:06;7.97;;;6.90;;
51499;SDS011;39101;53.478;6.158;2022-08-23T10:44:00;6.80;;;4.00;;
51499;SDS011;39101;53.478;6.158;2022-08-23T10:46:32;6.65;;;3.58;;
51499;SDS011;39101;53.478;6.158;2022-08-23T10:49:04;5.30;;;3.38;;
51499;SDS011;39101;53.478;6.158;2022-08-23T10:55:16;6.28;;;3.65;;
51499;SDS011;39101;53.478;6.158;2022-08-23T10:58:09;8.55;;;3.78;;
51499;SDS011;39101;53.478;6.158;2022-08-23T11:00:42;6.13;;;4.13;;
51499;SDS011;39101;53.478;6.158;2022-08-23T11:03:20;8.40;;;4.65;;
51499;SDS011;39101;53.478;6.158;2022-08-23T11:17:11;5.53;;;3.42;;
51499;SDS011;39101;53.478;6.158;2022-08-23T11:31:36;5.95;;;3.28;;
51499;SDS011;39101;53.478;6.158;2022-08-23T11:36:40;9.20;;;3.42;;
51499;SDS011;39101;53.478;6.158;2022-08-23T11:43:05;5.75;;;2.90;;
51499;SDS011;39101;53.478;6.158;2022-08-23T11:56:22;6.00;;;2.55;;
51499;SDS011;39101;53.478;6.158;2022-08-23T12:01:54;7.57;;;3.85;;
51499;SDS011;39101;53.478;6.158;2022-08-23T12:07:06;8.43;;;3.72;;
51499;SDS011;39101;53.478;6.158;2022-08-23T12:09:58;6.57;;;3.67;;
51499;SDS011;39101;53.478;6.158;2022-08-23T12:12:27;11.68;;;4.05;;
51499;SDS011;39101;53.478;6.158;2022-08-23T12:14:58;6.57;;;3.40;;
51499;SDS011;39101;53.478;6.158;2022-08-23T12:20:06;6.68;;;3.70;;
51499;SDS011;39101;53.478;6.158;2022-08-23T12:25:38;9.70;;;5.45;;
51499;SDS011;39101;53.478;6.158;2022-08-23T12:28:09;10.40;;;5.95;;
51499;SDS011;39101;53.478;6.158;2022-08-23T12:36:55;9.95;;;7.47;;
51499;SDS011;39101;53.478;6.158;2022-08-23T12:39:39;12.73;;;10.95;;
51499;SDS011;39101;53.478;6.158;2022-08-23T12:42:27;14.38;;;9.48;;
51499;SDS011;39101;53.478;6.158;2022-08-23T12:45:15;12.07;;;8.73;;
51499;SDS011;39101;53.478;6.158;2022-08-23T12:48:04;12.88;;;11.13;;
51499;SDS011;39101;53.478;6.158;2022-08-23T12:50:36;12.95;;;11.65;;
51499;SDS011;39101;53.478;6.158;2022-08-23T12:53:30;15.30;;;9.95;;
51499;SDS011;39101;53.478;6.158;2022-08-23T12:56:04;13.35;;;10.50;;
51499;SDS011;39101;53.478;6.158;2022-08-23T12:58:34;13.90;;;11.52;;
51499;SDS011;39101;53.478;6.158;2022-08-23T13:01:04;15.05;;;11.00;;
51499;SDS011;39101;53.478;6.158;2022-08-23T13:03:37;15.10;;;12.82;;
51499;SDS011;39101;53.478;6.158;2022-08-23T13:06:11;13.43;;;11.27;;
51499;SDS011;39101;53.478;6.158;2022-08-23T13:08:56;12.98;;;10.90;;
51499;SDS011;39101;53.478;6.158;2022-08-23T13:11:28;13.15;;;11.10;;
51499;SDS011;39101;53.478;6.158;2022-08-23T13:13:57;14.80;;;11.95;;
51499;SDS011;39101;53.478;6.158;2022-08-23T13:16:30;12.98;;;11.57;;
51499;SDS011;39101;53.478;6.158;2022-08-23T13:19:12;16.13;;;11.60;;
51499;SDS011;39101;53.478;6.158;2022-08-23T13:24:43;13.07;;;10.60;;
51499;SDS011;39101;53.478;6.158;2022-08-23T13:27:24;14.30;;;11.50;;
51499;SDS011;39101;53.478;6.158;2022-08-23T13:41:03;13.30;;;11.80;;
51499;SDS011;39101;53.478;6.158;2022-08-23T13:43:55;18.45;;;13.00;;
51499;SDS011;39101;53.478;6.158;2022-08-23T13:54:00;17.17;;;13.15;;
51499;SDS011;39101;53.478;6.158;2022-08-23T13:56:51;16.48;;;12.13;;
51499;SDS011;39101;53.478;6.158;2022-08-23T13:59:24;15.02;;;12.85;;
51499;SDS011;39101;53.478;6.158;2022-08-23T14:02:10;15.48;;;10.50;;
51499;SDS011;39101;53.478;6.158;2022-08-23T14:04:40;16.88;;;14.23;;
51499;SDS011;39101;53.478;6.158;2022-08-23T14:07:07;18.40;;;12.20;;
51499;SDS011;39101;53.478;6.158;2022-08-23T14:09:34;13.38;;;11.45;;
51499;SDS011;39101;53.478;6.158;2022-08-23T14:12:05;21.15;;;16.48;;
51499;SDS011;39101;53.478;6.158;2022-08-23T14:14:35;19.08;;;13.10;;
51499;SDS011;39101;53.478;6.158;2022-08-23T14:17:02;19.60;;;14.70;;
51499;SDS011;39101;53.478;6.158;2022-08-23T14:19:29;15.07;;;12.80;;
51499;SDS011;39101;53.478;6.158;2022-08-23T14:21:59;12.73;;;10.98;;
51499;SDS011;39101;53.478;6.158;2022-08-23T14:24:25;19.90;;;13.90;;
51499;SDS011;39101;53.478;6.158;2022-08-23T14:26:52;14.63;;;11.65;;
51499;SDS011;39101;53.478;6.158;2022-08-23T14:29:19;21.02;;;12.75;;
51499;SDS011;39101;53.478;6.158;2022-08-23T14:31:48;15.57;;;11.93;;
51499;SDS011;39101;53.478;6.158;2022-08-23T14:34:15;19.10;;;13.20;;
51499;SDS011;39101;53.478;6.158;2022-08-23T14:36:42;18.90;;;13.23;;
51499;SDS011;39101;53.478;6.158;2022-08-23T14:39:08;20.40;;;12.32;;
51499;SDS011;39101;53.478;6.158;2022-08-23T14:41:33;18.85;;;13.60;;
51499;SDS011;39101;53.478;6.158;2022-08-23T14:43:59;20.02;;;15.02;;
51499;SDS011;39101;53.478;6.158;2022-08-23T14:46:25;18.35;;;13.82;;
51499;SDS011;39101;53.478;6.158;2022-08-23T14:48:51;16.40;;;12.10;;
51499;SDS011;39101;53.478;6.158;2022-08-23T14:51:39;20.95;;;16.80;;
51499;SDS011;39101;53.478;6.158;2022-08-23T14:54:04;23.73;;;18.55;;
51499;SDS011;39101;53.478;6.158;2022-08-23T14:56:32;15.75;;;12.95;;
51499;SDS011;39101;53.478;6.158;2022-08-23T14:58:58;20.85;;;14.68;;
51499;SDS011;39101;53.478;6.158;2022-08-23T15:01:24;22.85;;;18.63;;
51499;SDS011;39101;53.478;6.158;2022-08-23T15:03:50;28.05;;;22.17;;
51499;SDS011;39101;53.478;6.158;2022-08-23T15:06:17;20.10;;;18.00;;
51499;SDS011;39101;53.478;6.158;2022-08-23T15:08:43;23.70;;;17.58;;
51499;SDS011;39101;53.478;6.158;2022-08-23T15:11:09;25.05;;;18.30;;
51499;SDS011;39101;53.478;6.158;2022-08-23T15:13:36;20.90;;;16.23;;
51499;SDS011;39101;53.478;6.158;2022-08-23T15:16:03;22.65;;;17.35;;
51499;SDS011;39101;53.478;6.158;2022-08-23T15:18:30;24.23;;;17.50;;
51499;SDS011;39101;53.478;6.158;2022-08-23T15:20:57;25.73;;;22.08;;
51499;SDS011;39101;53.478;6.158;2022-08-23T15:23:23;19.48;;;17.48;;
51499;SDS011;39101;53.478;6.158;2022-08-23T15:25:49;21.00;;;18.80;;
51499;SDS011;39101;53.478;6.158;2022-08-23T15:28:16;25.35;;;19.00;;
51499;SDS011;39101;53.478;6.158;2022-08-23T15:30:43;19.10;;;16.25;;
51499;SDS011;39101;53.478;6.158;2022-08-23T15:33:09;23.58;;;17.77;;
51499;SDS011;39101;53.478;6.158;2022-08-23T15:35:38;20.10;;;15.77;;
51499;SDS011;39101;53.478;6.158;2022-08-23T15:38:09;24.27;;;15.52;;
51499;SDS011;39101;53.478;6.158;2022-08-23T15:40:35;23.55;;;15.88;;
51499;SDS011;39101;53.478;6.158;2022-08-23T15:43:01;23.35;;;19.30;;
51499;SDS011;39101;53.478;6.158;2022-08-23T15:45:27;23.58;;;17.17;;
51499;SDS011;39101;53.478;6.158;2022-08-23T15:47:56;19.02;;;16.63;;
51499;SDS011;39101;53.478;6.158;2022-08-23T15:50:24;20.33;;;17.05;;
51499;SDS011;39101;53.478;6.158;2022-08-23T15:52:52;22.23;;;15.38;;
51499;SDS011;39101;53.478;6.158;2022-08-23T15:55:18;21.55;;;16.80;;
51499;SDS011;39101;53.478;6.158;2022-08-23T15:57:45;16.90;;;13.68;;
51499;SDS011;39101;53.478;6.158;2022-08-23T16:00:15;23.73;;;16.42;;
51499;SDS011;39101;53.478;6.158;2022-08-23T16:02:42;19.08;;;14.30;;
51499;SDS011;39101;53.478;6.158;2022-08-23T16:05:09;17.50;;;14.00;;
51499;SDS011;39101;53.478;6.158;2022-08-23T16:07:35;17.23;;;13.23;;
51499;SDS011;39101;53.478;6.158;2022-08-23T16:10:03;22.35;;;15.23;;
51499;SDS011;39101;53.478;6.158;2022-08-23T16:12:30;19.33;;;12.27;;
51499;SDS011;39101;53.478;6.158;2022-08-23T16:14:56;24.35;;;14.73;;
51499;SDS011;39101;53.478;6.158;2022-08-23T16:17:22;17.13;;;14.00;;
51499;SDS011;39101;53.478;6.158;2022-08-23T16:19:48;21.60;;;15.27;;
51499;SDS011;39101;53.478;6.158;2022-08-23T16:22:14;18.45;;;14.30;;
51499;SDS011;39101;53.478;6.158;2022-08-23T16:24:40;20.80;;;13.13;;
51499;SDS011;39101;53.478;6.158;2022-08-23T16:27:06;20.80;;;13.60;;
51499;SDS011;39101;53.478;6.158;2022-08-23T16:29:33;17.48;;;12.05;;
51499;SDS011;39101;53.478;6.158;2022-08-23T16:32:00;18.40;;;14.38;;
51499;SDS011;39101;53.478;6.158;2022-08-23T16:34:26;23.17;;;14.90;;
51499;SDS011;39101;53.478;6.158;2022-08-23T16:36:54;16.98;;;12.43;;
51499;SDS011;39101;53.478;6.158;2022-08-23T16:39:23;15.85;;;12.95;;
51499;SDS011;39101;53.478;6.158;2022-08-23T16:41:50;16.73;;;11.32;;
51499;SDS011;39101;53.478;6.158;2022-08-23T16:44:15;17.40;;;12.18;;
51499;SDS011;39101;53.478;6.158;2022-08-23T16:46:41;21.75;;;12.98;;
51499;SDS011;39101;53.478;6.158;2022-08-23T16:49:11;18.92;;;13.07;;
51499;SDS011;39101;53.478;6.158;2022-08-23T16:51:41;16.25;;;11.57;;
51499;SDS011;39101;53.478;6.158;2022-08-23T16:54:07;18.08;;;13.13;;
51499;SDS011;39101;53.478;6.158;2022-08-23T16:56:34;17.58;;;11.70;;
51499;SDS011;39101;53.478;6.158;2022-08-23T16:59:02;21.25;;;12.35;;
51499;SDS011;39101;53.478;6.158;2022-08-23T17:01:29;15.75;;;11.50;;
51499;SDS011;39101;53.478;6.158;2022-08-23T17:04:06;16.67;;;10.70;;
51499;SDS011;39101;53.478;6.158;2022-08-23T17:06:32;16.08;;;11.77;;
51499;SDS011;39101;53.478;6.158;2022-08-23T17:08:57;16.90;;;13.15;;